Time;durP1;ratioP1;P1;durP2;ratioP2;P2;SDS_P1;SDS_P2;PMS_P1;PMS_P2;Temp;Humidity;BMP_temperature;BMP_pressure;BME280_temperature;BME280_humidity;BME280_pressure;Samples;Min_cycle;Max_cycle;Signal;HPM_P1;HPM_P2
2023/03/11 00:00:36;;;;;;;;;;;19.10;71.80;;;;;;7365245;19;20255;-73
2023/03/11 00:03:03;;;;;;;7.50;1.33;;;19.10;71.90;;;;;;7389828;19;20355;-74
2023/03/11 00:05:32;;;;;;;6.30;1.55;;;19.10;72.10;;;;;;7403464;19;19922;-74
2023/03/11 00:07:59;;;;;;;8.15;1.20;;;19.00;72.30;;;;;;7385905;19;19962;-72
2023/03/11 00:10:28;;;;;;;6.20;1.40;;;19.00;72.30;;;;;;7388868;19;19929;-75
2023/03/11 00:12:54;;;;;;;9.52;1.52;;;19.00;72.50;;;;;;7391155;19;19944;-75
2023/03/11 00:15:20;;;;;;;6.50;1.20;;;18.90;72.40;;;;;;7400762;19;19954;-73
2023/03/11 00:17:49;;;;;;;7.85;1.42;;;18.80;72.60;;;;;;7406437;19;19942;-73
2023/03/11 00:20:39;;;;;;;6.10;1.40;;;18.80;72.80;;;;;;7402113;19;19914;-73
2023/03/11 00:23:07;;;;;;;6.00;1.55;;;18.80;73.10;;;;;;7404029;19;19918;-74
2023/03/11 00:25:34;;;;;;;4.55;1.40;;;18.90;73.00;;;;;;7406645;19;19914;-74
2023/03/11 00:28:00;;;;;;;7.47;1.38;;;18.70;73.20;;;;;;7401423;19;20018;-72
2023/03/11 00:30:27;;;;;;;6.03;1.38;;;18.70;73.40;;;;;;7406771;19;19922;-73
2023/03/11 00:32:55;;;;;;;3.55;0.90;;;18.60;73.40;;;;;;7405271;19;19927;-73
2023/03/11 00:35:25;;;;;;;7.25;1.48;;;18.70;73.40;;;;;;7403755;19;20295;-74
2023/03/11 00:37:56;;;;;;;6.03;1.20;;;18.70;73.40;;;;;;7405756;19;19919;-72
2023/03/11 00:40:24;;;;;;;8.38;1.58;;;18.70;73.60;;;;;;7404283;19;20017;-73
2023/03/11 00:42:51;;;;;;;6.25;1.95;;;18.70;73.60;;;;;;7406372;19;19918;-73
2023/03/11 00:45:17;;;;;;;7.45;1.80;;;18.70;73.50;;;;;;7401017;19;19921;-73
2023/03/11 00:47:45;;;;;;;6.88;1.42;;;18.70;73.70;;;;;;7406336;19;19942;-73
2023/03/11 00:50:16;;;;;;;;;;;18.60;73.80;;;;;;7407436;19;19921;-73
2023/03/11 00:52:43;;;;;;;7.43;1.42;;;18.60;73.80;;;;;;7403450;19;20246;-73
2023/03/11 00:55:12;;;;;;;4.45;1.02;;;18.50;74.00;;;;;;7402276;19;19914;-73
2023/03/11 00:57:38;;;;;;;7.05;1.45;;;18.50;74.20;;;;;;7402833;19;19926;-73
2023/03/11 01:00:10;;;;;;;7.50;1.40;;;18.40;74.40;;;;;;7399871;19;19915;-73
2023/03/11 01:02:36;;;;;;;7.35;1.25;;;18.50;74.40;;;;;;7403615;19;19924;-73
2023/03/11 01:05:01;;;;;;;7.03;1.73;;;18.60;74.20;;;;;;7403216;19;19915;-74
2023/03/11 01:07:27;;;;;;;6.60;1.40;;;18.50;74.30;;;;;;7403606;19;19952;-75
2023/03/11 01:09:54;;;;;;;4.25;1.13;;;18.40;74.50;;;;;;7404687;19;19922;-73
2023/03/11 01:12:20;;;;;;;7.80;1.92;;;18.30;74.80;;;;;;7403853;19;19926;-73
2023/03/11 01:14:46;;;;;;;8.23;1.30;;;18.40;74.80;;;;;;7405845;19;19925;-75
2023/03/11 01:17:11;;;;;;;7.20;1.38;;;18.40;74.70;;;;;;7400524;19;19926;-75
2023/03/11 01:19:37;;;;;;;7.50;1.40;;;18.40;74.60;;;;;;7401913;19;19917;-73
2023/03/11 01:22:03;;;;;;;7.13;1.45;;;18.40;74.80;;;;;;7400298;19;19918;-76
2023/03/11 01:24:29;;;;;;;5.93;1.42;;;18.40;74.70;;;;;;7401536;19;19928;-73
2023/03/11 01:26:54;;;;;;;6.65;1.27;;;18.30;74.90;;;;;;7404289;19;19910;-73
2023/03/11 01:29:20;;;;;;;6.00;1.30;;;18.30;75.10;;;;;;7400730;19;19936;-73
2023/03/11 01:31:46;;;;;;;5.55;1.48;;;18.30;75.00;;;;;;7403647;19;19981;-72
2023/03/11 01:34:12;;;;;;;5.50;1.10;;;18.20;75.30;;;;;;7402538;19;19925;-70
2023/03/11 01:36:38;;;;;;;6.10;1.40;;;18.30;75.30;;;;;;7404434;19;19915;-74
2023/03/11 01:39:03;;;;;;;6.93;1.65;;;18.20;75.30;;;;;;7401421;19;19921;-73
2023/03/11 01:41:30;;;;;;;3.63;1.02;;;18.20;75.30;;;;;;7402480;19;20362;-73
2023/03/11 01:43:56;;;;;;;5.88;1.33;;;18.20;75.30;;;;;;7402861;19;19918;-71
2023/03/11 01:46:51;;;;;;;5.43;1.25;;;18.30;75.30;;;;;;7400690;19;19907;-72
2023/03/11 01:49:16;;;;;;;5.03;1.17;;;18.20;75.40;;;;;;7400705;19;19914;-72
2023/03/11 01:51:47;;;;;;;5.07;1.35;;;18.20;75.60;;;;;;7399637;19;19921;-72
2023/03/11 01:54:19;;;;;;;4.28;1.40;;;18.20;75.70;;;;;;7397469;19;20242;-72
2023/03/11 01:56:47;;;;;;;4.68;1.30;;;18.20;75.60;;;;;;7401684;19;19926;-72
2023/03/11 01:59:16;;;;;;;8.55;1.40;;;18.20;75.80;;;;;;7400077;19;20312;-72
2023/03/11 02:02:24;;;;;;;7.13;1.45;;;18.10;76.00;;;;;;7402709;19;20386;-74
2023/03/11 02:04:50;;;;;;;7.32;1.13;;;18.00;76.10;;;;;;7402994;19;19934;-73
2023/03/11 02:07:16;;;;;;;6.07;1.75;;;18.00;76.40;;;;;;7408368;19;19911;-73
2023/03/11 02:09:42;;;;;;;9.80;1.45;;;17.90;76.40;;;;;;7410321;19;19919;-73
2023/03/11 02:12:10;;;;;;;7.80;1.80;;;17.90;76.60;;;;;;7408549;19;19915;-73
2023/03/11 02:14:44;;;;;;;6.40;1.45;;;18.00;76.30;;;;;;7406252;19;19915;-73
2023/03/11 02:17:10;;;;;;;6.32;1.00;;;18.00;76.20;;;;;;7408597;19;20728;-73
2023/03/11 02:19:44;;;;;;;5.95;1.10;;;18.00;76.30;;;;;;7378193;19;19919;-72
2023/03/11 02:22:11;;;;;;;8.27;1.88;;;17.90;76.50;;;;;;7407786;19;20335;-72
2023/03/11 02:24:49;;;;;;;;;;;17.90;76.60;;;;;;7410472;19;19982;-72
2023/03/11 02:27:18;;;;;;;10.77;1.70;;;17.80;76.80;;;;;;7408043;19;19990;-72
2023/03/11 02:29:48;;;;;;;6.95;1.35;;;17.90;76.80;;;;;;7407820;19;20563;-73
2023/03/11 02:32:14;;;;;;;6.68;2.90;;;17.90;76.60;;;;;;7405923;19;19982;-72
2023/03/11 02:34:40;;;;;;;6.30;1.50;;;17.90;76.80;;;;;;7407511;19;19937;-72
2023/03/11 02:37:09;;;;;;;6.00;1.40;;;17.80;76.90;;;;;;7407628;19;19943;-73
2023/03/11 02:39:40;;;;;;;6.50;1.38;;;17.80;77.00;;;;;;7406863;19;19925;-72
2023/03/11 02:42:12;;;;;;;5.80;1.10;;;17.80;77.00;;;;;;7373725;19;19918;-72
2023/03/11 02:44:40;;;;;;;7.68;1.52;;;17.80;77.10;;;;;;7406563;19;19922;-72
2023/03/11 02:47:06;;;;;;;10.80;1.88;;;17.80;77.00;;;;;;7405804;19;20406;-72
2023/03/11 02:49:32;;;;;;;7.20;1.20;;;17.80;77.00;;;;;;7408764;19;19915;-73
2023/03/11 02:51:58;;;;;;;7.35;1.75;;;17.80;77.00;;;;;;7406329;19;19927;-73
2023/03/11 02:54:24;;;;;;;5.38;1.33;;;17.80;77.00;;;;;;7405765;19;19926;-73
2023/03/11 02:56:50;;;;;;;7.65;1.55;;;17.70;77.30;;;;;;7409480;19;19929;-73
2023/03/11 02:59:16;;;;;;;6.15;1.45;;;17.90;77.10;;;;;;7404878;19;19925;-73
2023/03/11 03:01:42;;;;;;;5.55;1.30;;;17.80;77.30;;;;;;7405626;19;19910;-73
2023/03/11 03:04:08;;;;;;;5.07;1.13;;;17.60;77.70;;;;;;7406762;19;20248;-72
2023/03/11 03:06:33;;;;;;;4.30;1.25;;;17.60;77.90;;;;;;7403851;19;19934;-72
2023/03/11 03:08:59;;;;;;;6.10;1.35;;;17.60;78.10;;;;;;7407803;19;20285;-72
2023/03/11 03:11:25;;;;;;;6.95;1.55;;;17.50;78.10;;;;;;7404105;19;19922;-73
2023/03/11 03:13:51;;;;;;;4.93;1.52;;;17.50;78.20;;;;;;7405985;19;19931;-72
2023/03/11 03:16:17;;;;;;;8.82;1.83;;;17.60;78.20;;;;;;7402257;19;19923;-72
2023/03/11 03:18:43;;;;;;;10.30;1.33;;;17.50;78.20;;;;;;7406703;19;19918;-72
2023/03/11 03:21:08;;;;;;;4.70;1.40;;;17.40;78.40;;;;;;7404912;19;19921;-72
2023/03/11 03:23:36;;;;;;;4.80;1.40;;;17.50;78.30;;;;;;7406707;19;19919;-73
2023/03/11 03:26:03;;;;;;;5.07;1.63;;;17.50;78.30;;;;;;7405673;19;19923;-72
2023/03/11 03:28:29;;;;;;;6.80;1.67;;;17.60;78.10;;;;;;7405790;19;20283;-71
2023/03/11 03:30:55;;;;;;;7.95;1.55;;;17.60;77.80;;;;;;7405127;19;19942;-71
2023/03/11 03:33:21;;;;;;;7.07;1.50;;;17.60;77.90;;;;;;7372898;19;19915;-73
2023/03/11 03:35:47;;;;;;;7.00;1.60;;;17.60;78.00;;;;;;7404525;19;20251;-72
2023/03/11 03:38:13;;;;;;;5.20;1.42;;;17.60;78.00;;;;;;7404926;19;19918;-73
2023/03/11 03:40:44;;;;;;;9.43;1.75;;;17.60;78.10;;;;;;7404546;19;19923;-71
2023/03/11 03:43:10;;;;;;;4.22;1.15;;;17.50;78.10;;;;;;7403896;19;19934;-74
2023/03/11 03:45:36;;;;;;;7.10;1.33;;;17.50;78.20;;;;;;7406392;19;19974;-72
2023/03/11 03:48:01;;;;;;;5.97;1.77;;;17.50;78.40;;;;;;7406018;19;19914;-73
2023/03/11 03:50:27;;;;;;;5.50;1.50;;;17.40;78.40;;;;;;7406509;19;19918;-72
2023/03/11 03:52:53;;;;;;;10.20;1.58;;;17.40;78.50;;;;;;7403943;19;20025;-72
2023/03/11 03:55:19;;;;;;;5.88;1.45;;;17.40;78.80;;;;;;7405447;19;19926;-72
2023/03/11 03:57:45;;;;;;;5.90;1.40;;;17.30;78.80;;;;;;7405696;19;19918;-72
2023/03/11 04:00:11;;;;;;;6.30;1.40;;;17.30;78.80;;;;;;7403490;19;19915;-72
2023/03/11 04:02:37;;;;;;;6.38;1.60;;;17.30;78.80;;;;;;7404694;19;20394;-72
2023/03/11 04:05:03;;;;;;;6.05;1.40;;;17.30;78.80;;;;;;7405838;19;19918;-73
2023/03/11 04:07:29;;;;;;;8.48;2.00;;;17.30;79.00;;;;;;7402340;19;19923;-72
2023/03/11 04:09:54;;;;;;;7.05;1.17;;;17.30;78.90;;;;;;7404363;19;19937;-72
2023/03/11 04:12:20;;;;;;;6.63;1.33;;;17.30;79.00;;;;;;7404425;19;19988;-72
2023/03/11 04:14:46;;;;;;;4.47;1.25;;;17.20;79.10;;;;;;7403851;19;19910;-72
2023/03/11 04:17:13;;;;;;;7.15;1.42;;;17.30;79.00;;;;;;7402853;19;19915;-71
2023/03/11 04:19:39;;;;;;;6.53;1.52;;;17.20;79.00;;;;;;7402400;19;20391;-72
2023/03/11 04:22:05;;;;;;;7.88;1.35;;;17.20;79.20;;;;;;7373868;19;19948;-72
2023/03/11 04:24:31;;;;;;;4.40;0.98;;;17.20;79.20;;;;;;7404995;19;19915;-72
2023/03/11 04:26:57;;;;;;;5.50;1.63;;;17.20;79.20;;;;;;7405421;19;19915;-72
2023/03/11 04:29:23;;;;;;;5.40;1.15;;;17.20;79.40;;;;;;7402012;19;20312;-73
2023/03/11 04:31:48;;;;;;;5.30;1.35;;;17.20;79.40;;;;;;7405088;19;19928;-72
2023/03/11 04:34:14;;;;;;;6.32;1.52;;;17.20;79.50;;;;;;7402168;19;19970;-72
2023/03/11 04:36:40;;;;;;;5.38;1.55;;;17.20;79.50;;;;;;7405175;19;20332;-72
2023/03/11 04:39:06;;;;;;;5.00;1.33;;;17.20;79.40;;;;;;7403534;19;19959;-72
2023/03/11 04:41:32;;;;;;;7.45;1.73;;;17.20;79.30;;;;;;7403339;19;19914;-72
2023/03/11 04:43:59;;;;;;;4.60;1.50;;;17.20;79.50;;;;;;7402990;19;19970;-72
2023/03/11 04:46:25;;;;;;;7.82;1.60;;;17.20;79.40;;;;;;7372285;19;19956;-73
2023/03/11 04:48:51;;;;;;;6.13;1.30;;;17.20;79.50;;;;;;7403836;19;20323;-72
2023/03/11 04:51:17;;;;;;;6.15;1.40;;;17.00;79.70;;;;;;7404345;19;19925;-71
2023/03/11 04:53:43;;;;;;;6.95;1.50;;;17.10;79.70;;;;;;7403529;19;19918;-72
2023/03/11 04:56:09;;;;;;;5.28;1.50;;;17.10;79.60;;;;;;7404176;19;19926;-71
2023/03/11 04:58:35;;;;;;;8.25;1.23;;;17.20;79.50;;;;;;7403177;19;19929;-71
2023/03/11 05:01:00;;;;;;;4.00;1.00;;;17.10;79.50;;;;;;7402459;19;19985;-73
2023/03/11 05:03:26;;;;;;;5.03;1.38;;;17.10;79.60;;;;;;7401515;19;19914;-73
2023/03/11 05:05:55;;;;;;;5.63;1.40;;;17.20;79.60;;;;;;7403514;19;19910;-73
2023/03/11 05:08:24;;;;;;;9.13;1.50;;;17.20;79.30;;;;;;7401082;19;19916;-72
2023/03/11 05:10:51;;;;;;;5.65;1.15;;;17.20;79.40;;;;;;7402402;19;19910;-72
2023/03/11 05:13:18;;;;;;;4.00;1.10;;;17.10;79.50;;;;;;7397944;19;20004;-72
2023/03/11 05:15:45;;;;;;;5.47;1.48;;;17.30;79.20;;;;;;7404701;19;20258;-72
2023/03/11 05:18:11;;;;;;;7.50;1.60;;;17.30;79.20;;;;;;7402277;19;19922;-72
2023/03/11 05:20:37;;;;;;;5.38;1.40;;;17.30;79.20;;;;;;7402679;19;19919;-72
2023/03/11 05:23:03;;;;;;;5.95;1.30;;;17.30;79.20;;;;;;7404009;19;20280;-72
2023/03/11 05:25:30;;;;;;;5.45;1.42;;;17.30;79.10;;;;;;7405252;19;19934;-72
2023/03/11 05:27:55;;;;;;;;;;;17.20;79.20;;;;;;7403304;19;19918;-72
2023/03/11 05:30:21;;;;;;;4.22;1.30;;;17.20;79.40;;;;;;7400434;19;20402;-73
2023/03/11 05:32:48;;;;;;;4.65;1.55;;;17.30;79.20;;;;;;7403039;19;19987;-72
2023/03/11 05:35:14;;;;;;;6.13;1.27;;;17.30;79.00;;;;;;7400882;19;19915;-72
2023/03/11 05:37:39;;;;;;;4.53;1.40;;;17.30;79.10;;;;;;7403931;19;19911;-72
2023/03/11 05:40:07;;;;;;;6.43;1.92;;;17.30;79.20;;;;;;7377956;19;19982;-72
2023/03/11 05:42:33;;;;;;;6.13;1.55;;;17.30;79.30;;;;;;7403593;19;19931;-72
2023/03/11 05:44:59;;;;;;;6.75;1.88;;;17.20;79.40;;;;;;7404277;19;19922;-73
2023/03/11 05:47:25;;;;;;;5.15;1.55;;;17.30;79.20;;;;;;7401190;19;20030;-73
2023/03/11 05:49:51;;;;;;;7.85;1.30;;;17.20;79.20;;;;;;7402850;19;19936;-72
2023/03/11 05:52:17;;;;;;;4.72;1.50;;;17.20;79.20;;;;;;7400723;19;19911;-73
2023/03/11 05:54:43;;;;;;;5.07;1.63;;;17.20;79.20;;;;;;7403493;19;19927;-73
2023/03/11 05:57:09;;;;;;;6.57;1.88;;;17.30;79.10;;;;;;7401533;19;19926;-71
2023/03/11 05:59:36;;;;;;;7.93;1.45;;;17.20;79.40;;;;;;7401755;19;19917;-73
2023/03/11 06:02:02;;;;;;;6.03;1.33;;;17.20;79.20;;;;;;7403037;19;20242;-72
2023/03/11 06:04:28;;;;;;;5.32;1.10;;;17.20;79.20;;;;;;7370377;19;19914;-72
2023/03/11 06:06:54;;;;;;;8.70;1.48;;;17.20;79.00;;;;;;7401581;19;19922;-72
2023/03/11 06:09:19;;;;;;;6.85;1.42;;;17.20;79.20;;;;;;7402186;19;19921;-73
2023/03/11 06:11:45;;;;;;;5.47;1.50;;;17.20;79.20;;;;;;7400698;19;19923;-72
2023/03/11 06:14:13;;;;;;;5.95;1.40;;;17.20;79.20;;;;;;7398950;19;19944;-73
2023/03/11 06:16:39;;;;;;;6.68;1.88;;;17.20;79.40;;;;;;7403457;19;19918;-72
2023/03/11 06:19:05;;;;;;;4.85;1.33;;;17.20;79.40;;;;;;7401909;19;19974;-73
2023/03/11 06:21:31;;;;;;;6.30;1.58;;;17.20;79.30;;;;;;7402713;19;20350;-72
2023/03/11 06:23:57;;;;;;;6.20;2.08;;;17.20;79.30;;;;;;7403611;19;19918;-72
2023/03/11 06:26:23;;;;;;;5.00;1.52;;;17.20;79.20;;;;;;7399060;19;19934;-72
2023/03/11 06:28:50;;;;;;;4.63;1.20;;;17.20;79.00;;;;;;7403612;19;19926;-73
2023/03/11 06:31:25;;;;;;;6.28;2.13;;;17.20;79.00;;;;;;7401764;19;19922;-72
2023/03/11 06:33:51;;;;;;;5.63;1.30;;;17.20;79.30;;;;;;7400276;19;19919;-73
2023/03/11 06:36:18;;;;;;;4.60;1.42;;;17.10;79.40;;;;;;7399368;19;19994;-72
2023/03/11 06:38:48;;;;;;;4.65;1.23;;;17.20;79.40;;;;;;7400619;19;19986;-72
2023/03/11 06:41:15;;;;;;;7.63;1.55;;;17.20;79.90;;;;;;7397826;19;19915;-72
2023/03/11 06:43:41;;;;;;;4.22;1.35;;;17.20;79.20;;;;;;7379691;19;19982;-74
2023/03/11 06:46:16;;;;;;;5.82;1.38;;;17.20;79.20;;;;;;7395455;19;20014;-72
2023/03/11 06:48:42;;;;;;;10.82;1.67;;;17.20;79.30;;;;;;7401891;19;19926;-72
2023/03/11 06:51:09;;;;;;;4.72;1.40;;;17.30;79.10;;;;;;7367682;19;19943;-71
2023/03/11 06:53:35;;;;;;;4.50;1.58;;;17.30;79.00;;;;;;7406309;19;19911;-73
2023/03/11 06:56:10;;;;;;;6.78;1.10;;;17.30;78.90;;;;;;7404312;19;20393;-72
2023/03/11 06:58:37;;;;;;;5.47;1.55;;;17.30;79.00;;;;;;7401681;19;19931;-72
2023/03/11 07:01:16;;;;;;;7.82;1.50;;;17.30;79.00;;;;;;7403977;19;19970;-72
2023/03/11 07:03:42;;;;;;;9.10;1.52;;;17.30;78.90;;;;;;7408411;19;19930;-72
2023/03/11 07:06:16;;;;;;;6.10;1.40;;;17.30;79.10;;;;;;7404458;19;19922;-73
2023/03/11 07:08:42;;;;;;;8.00;1.63;;;17.30;79.30;;;;;;7408821;19;19937;-73
2023/03/11 07:11:21;;;;;;;3.30;1.20;;;17.30;79.50;;;;;;7406004;19;19918;-74
2023/03/11 07:13:47;;;;;;;4.65;1.48;;;17.20;79.60;;;;;;7376422;19;19921;-72
2023/03/11 07:16:17;;;;;;;8.65;1.98;;;17.20;79.80;;;;;;7383506;19;19993;-73
2023/03/11 07:18:45;;;;;;;6.85;1.35;;;17.10;79.90;;;;;;7408189;19;19922;-72
2023/03/11 07:21:15;;;;;;;6.07;1.60;;;17.20;80.00;;;;;;7404895;19;19923;-72
2023/03/11 07:23:41;;;;;;;9.02;2.28;;;17.20;80.00;;;;;;7408245;19;19922;-73
2023/03/11 07:26:09;;;;;;;7.22;1.60;;;17.20;79.90;;;;;;7405664;19;19915;-73
2023/03/11 07:28:35;;;;;;;4.97;1.17;;;17.30;79.90;;;;;;7405798;19;19931;-73
2023/03/11 07:31:07;;;;;;;6.30;1.85;;;17.30;80.00;;;;;;7407728;19;19918;-73
2023/03/11 07:33:32;;;;;;;5.47;1.55;;;17.20;80.10;;;;;;7407000;19;19911;-72
2023/03/11 07:35:58;;;;;;;6.63;1.73;;;17.30;80.00;;;;;;7405575;19;19918;-73
2023/03/11 07:38:24;;;;;;;6.75;1.20;;;17.20;80.10;;;;;;7406351;19;19950;-73
2023/03/11 07:40:58;;;;;;;4.88;1.40;;;17.30;80.20;;;;;;7406525;19;19982;-78
2023/03/11 07:43:23;;;;;;;7.47;1.42;;;17.30;80.40;;;;;;7406715;19;20284;-72
2023/03/11 07:45:50;;;;;;;7.35;1.70;;;17.30;80.30;;;;;;7375340;19;19917;-74
2023/03/11 07:48:16;;;;;;;10.15;2.13;;;17.30;80.50;;;;;;7403022;19;20834;-72
2023/03/11 07:50:42;;;;;;;6.30;1.27;;;17.30;80.60;;;;;;7406655;19;19918;-72
2023/03/11 07:53:08;;;;;;;5.90;1.35;;;17.30;80.60;;;;;;7403857;19;20383;-72
2023/03/11 07:55:34;;;;;;;5.43;1.73;;;17.30;80.60;;;;;;7404785;19;19911;-73
2023/03/11 07:57:59;;;;;;;4.95;1.35;;;17.30;80.50;;;;;;7404281;19;19915;-72
2023/03/11 08:00:25;;;;;;;7.97;1.65;;;17.30;80.70;;;;;;7404550;19;20273;-72
2023/03/11 08:02:51;;;;;;;6.40;1.70;;;17.30;81.40;;;;;;7400922;19;19918;-73
2023/03/11 08:05:19;;;;;;;7.28;1.40;;;17.30;80.70;;;;;;7403457;19;19923;-73
2023/03/11 08:07:45;;;;;;;7.00;1.73;;;17.30;80.80;;;;;;7403521;19;19922;-73
2023/03/11 08:10:12;;;;;;;7.68;1.63;;;17.30;80.80;;;;;;7402350;19;20612;-73
2023/03/11 08:12:37;;;;;;;5.05;1.52;;;17.30;80.90;;;;;;7406186;19;19997;-72
2023/03/11 08:15:04;;;;;;;7.70;1.60;;;17.30;81.50;;;;;;7384119;19;20328;-74
2023/03/11 08:17:29;;;;;;;11.02;1.92;;;17.40;80.90;;;;;;7402853;19;19910;-74
2023/03/11 08:19:57;;;;;;;5.20;1.48;;;17.40;80.60;;;;;;7405219;19;19922;-74
2023/03/11 08:22:22;;;;;;;5.03;1.73;;;17.40;80.70;;;;;;7404672;19;20263;-74
2023/03/11 08:24:51;;;;;;;6.35;1.52;;;17.40;80.70;;;;;;7402043;19;19918;-73
2023/03/11 08:27:19;;;;;;;5.97;1.50;;;17.50;80.60;;;;;;7402536;19;19937;-73
2023/03/11 08:29:44;;;;;;;5.90;1.45;;;17.50;80.50;;;;;;7405103;19;19915;-73
2023/03/11 08:32:10;;;;;;;5.03;1.60;;;17.60;80.60;;;;;;7404692;19;20352;-72
2023/03/11 08:34:38;;;;;;;4.38;1.40;;;17.60;80.40;;;;;;7404625;19;19938;-73
2023/03/11 08:37:04;;;;;;;7.15;1.75;;;17.60;80.40;;;;;;7402446;19;19921;-74
2023/03/11 08:39:29;;;;;;;3.55;1.30;;;17.60;80.50;;;;;;7399816;19;20367;-72
2023/03/11 08:41:58;;;;;;;5.80;1.20;;;17.70;80.50;;;;;;7403975;19;19914;-72
2023/03/11 08:44:24;;;;;;;6.15;1.45;;;17.70;80.30;;;;;;7400198;19;19910;-74
2023/03/11 08:46:50;;;;;;;4.75;1.40;;;17.70;80.20;;;;;;7405278;19;19921;-74
2023/03/11 08:49:16;;;;;;;4.65;1.50;;;17.80;80.20;;;;;;7402082;19;19914;-74
2023/03/11 08:51:41;;;;;;;6.25;1.48;;;17.80;80.10;;;;;;7406466;19;19925;-73
2023/03/11 08:54:07;;;;;;;7.88;2.03;;;17.90;80.00;;;;;;7403845;19;19922;-76
2023/03/11 08:56:33;;;;;;;7.57;1.75;;;18.00;79.80;;;;;;7406525;19;20350;-73
2023/03/11 08:58:59;;;;;;;9.52;1.60;;;18.00;79.60;;;;;;7403894;19;19914;-72
2023/03/11 09:01:25;;;;;;;6.40;1.38;;;18.10;79.50;;;;;;7404443;19;20250;-75
2023/03/11 09:03:51;;;;;;;5.95;1.70;;;18.10;79.30;;;;;;7403518;19;19982;-74
2023/03/11 09:06:17;;;;;;;8.27;1.83;;;18.20;79.40;;;;;;7404791;19;20298;-74
2023/03/11 09:08:45;;;;;;;5.30;1.42;;;18.20;79.30;;;;;;7405308;19;20007;-75
2023/03/11 09:11:12;;;;;;;7.03;1.63;;;18.30;79.00;;;;;;7401975;19;19978;-73
2023/03/11 09:13:39;;;;;;;7.63;1.42;;;18.40;78.90;;;;;;7404499;19;19922;-74
2023/03/11 09:16:07;;;;;;;5.38;1.40;;;18.50;78.70;;;;;;7401857;19;19926;-74
2023/03/11 09:18:33;;;;;;;7.57;1.42;;;18.40;78.60;;;;;;7402376;19;19906;-73
2023/03/11 09:21:01;;;;;;;5.13;1.42;;;18.40;78.60;;;;;;7402121;19;20460;-74
2023/03/11 09:23:27;;;;;;;5.70;1.63;;;18.60;78.40;;;;;;7402989;19;19915;-74
2023/03/11 09:25:52;;;;;;;5.53;1.65;;;18.70;78.00;;;;;;7401868;19;20346;-74
2023/03/11 09:28:18;;;;;;;7.05;1.85;;;18.70;77.80;;;;;;7398435;19;20331;-74
2023/03/11 09:30:44;;;;;;;6.50;1.60;;;18.90;77.70;;;;;;7403077;19;19919;-73
2023/03/11 09:33:10;;;;;;;6.75;1.70;;;18.90;77.50;;;;;;7395912;19;19927;-75
2023/03/11 09:35:37;;;;;;;4.97;1.85;;;19.20;77.30;;;;;;7399021;19;19910;-73
2023/03/11 09:38:03;;;;;;;6.20;1.70;;;21.20;74.30;;;;;;7401442;19;19914;-73
2023/03/11 09:40:51;;;;;;;5.03;1.75;;;20.20;73.80;;;;;;7402534;19;19925;-73
2023/03/11 09:43:28;;;;;;;5.57;1.65;;;19.60;75.50;;;;;;7401427;19;20348;-74
2023/03/11 09:46:24;;;;;;;10.60;2.30;;;19.30;76.40;;;;;;7391569;19;19926;-74
2023/03/11 09:49:17;;;;;;;8.40;1.88;;;19.30;76.60;;;;;;7392302;19;19925;-73
2023/03/11 09:52:07;;;;;;;5.07;1.65;;;19.40;76.70;;;;;;7387262;19;19918;-73
2023/03/11 09:54:38;;;;;;;9.73;1.85;;;19.40;76.50;;;;;;7379704;19;19910;-73
2023/03/11 09:57:06;;;;;;;5.57;1.77;;;19.50;76.40;;;;;;7395843;19;20003;-73
2023/03/11 09:59:33;;;;;;;4.45;1.27;;;19.70;76.10;;;;;;7404172;19;19915;-74
2023/03/11 10:01:59;;;;;;;6.65;1.65;;;20.10;75.30;;;;;;7401044;19;19923;-74
2023/03/11 10:04:40;;;;;;;5.93;1.88;;;20.60;73.80;;;;;;7400497;19;19914;-75
2023/03/11 10:07:17;;;;;;;4.13;1.58;;;20.70;73.70;;;;;;7388509;19;20323;-74
2023/03/11 10:09:56;;;;;;;10.13;2.05;;;20.60;73.90;;;;;;7388093;19;19978;-75
2023/03/11 10:12:42;;;;;;;6.50;1.80;;;20.70;73.80;;;;;;7394517;19;19945;-75
2023/03/11 10:15:23;;;;;;;5.80;1.70;;;20.50;73.80;;;;;;7393561;19;19921;-75
2023/03/11 10:18:08;;;;;;;4.43;1.50;;;20.60;74.00;;;;;;7401162;19;20393;-75
2023/03/11 10:20:42;;;;;;;6.07;1.15;;;20.40;73.90;;;;;;7394748;19;19915;-75
2023/03/11 10:23:36;;;;;;;4.95;1.55;;;20.50;74.20;;;;;;7389133;19;20335;-74
2023/03/11 10:26:04;;;;;;;9.60;1.80;;;20.60;73.90;;;;;;7401168;19;20390;-73
2023/03/11 10:28:49;;;;;;;10.43;1.75;;;20.50;74.10;;;;;;7383040;19;19945;-73
2023/03/11 10:31:26;;;;;;;7.68;1.50;;;20.60;73.90;;;;;;7403733;19;19939;-74
2023/03/11 10:34:10;;;;;;;5.28;1.67;;;20.60;73.80;;;;;;7404212;19;20014;-75
2023/03/11 10:36:52;;;;;;;4.97;1.58;;;20.80;73.20;;;;;;7401911;19;19922;-74
2023/03/11 10:39:19;;;;;;;5.95;1.83;;;20.70;73.20;;;;;;7352484;19;19922;-74
2023/03/11 10:41:53;;;;;;;7.15;1.73;;;20.90;73.10;;;;;;7387998;19;19915;-74
2023/03/11 10:44:26;;;;;;;4.05;1.67;;;20.90;73.00;;;;;;7397996;19;19918;-73
2023/03/11 10:46:52;;;;;;;6.13;1.77;;;20.90;72.70;;;;;;7407173;19;19922;-73
2023/03/11 10:49:18;;;;;;;6.70;1.42;;;21.00;72.60;;;;;;7408376;19;19911;-74
2023/03/11 10:51:52;;;;;;;4.80;1.67;;;21.20;72.10;;;;;;7402964;19;19926;-73
2023/03/11 10:54:29;;;;;;;6.63;1.92;;;21.30;72.00;;;;;;7404504;19;19919;-73
2023/03/11 10:57:00;;;;;;;4.65;1.90;;;21.40;71.60;;;;;;7407289;19;20339;-74
2023/03/11 10:59:27;;;;;;;4.90;1.30;;;22.10;70.20;;;;;;7407393;19;19915;-73
2023/03/11 11:01:58;;;;;;;7.10;1.75;;;21.90;70.40;;;;;;7406500;19;19907;-75
2023/03/11 11:04:38;;;;;;;7.72;2.20;;;22.20;70.10;;;;;;7405470;19;19914;-76
2023/03/11 11:07:25;;;;;;;6.20;1.80;;;22.60;69.30;;;;;;7403959;19;19922;-73
2023/03/11 11:10:10;;;;;;;3.85;1.60;;;23.40;68.10;;;;;;7406162;19;19955;-72
2023/03/11 11:12:36;;;;;;;;;;;23.60;67.50;;;;;;7405663;19;20019;-73
2023/03/11 11:15:02;;;;;;;5.50;1.88;;;24.00;66.90;;;;;;7401059;19;19926;-71
2023/03/11 11:17:29;;;;;;;;;;;24.10;66.50;;;;;;7408639;19;19978;-72
2023/03/11 11:19:57;;;;;;;5.47;1.95;;;23.60;66.00;;;;;;7403046;19;20252;-73
2023/03/11 11:22:24;;;;;;;7.97;1.80;;;23.90;66.80;;;;;;7403386;19;19927;-73
2023/03/11 11:24:53;;;;;;;5.65;1.92;;;24.20;65.30;;;;;;7402948;19;19930;-73
2023/03/11 11:27:22;;;;;;;7.03;1.92;;;24.50;65.40;;;;;;7401968;19;19997;-72
2023/03/11 11:30:03;;;;;;;4.90;1.90;;;24.90;64.60;;;;;;7405465;19;20279;-72
2023/03/11 11:32:29;;;;;;;5.80;2.10;;;25.20;63.70;;;;;;7402900;19;19929;-73
2023/03/11 11:35:12;;;;;;;7.70;2.08;;;25.30;64.10;;;;;;7407603;19;19914;-74
2023/03/11 11:37:42;;;;;;;4.80;1.90;;;25.70;64.00;;;;;;7402192;19;19925;-72
2023/03/11 11:40:14;;;;;;;6.55;1.70;;;25.60;63.60;;;;;;7402846;19;20376;-73
2023/03/11 11:42:47;;;;;;;6.72;2.05;;;25.80;63.50;;;;;;7402302;19;19922;-72
2023/03/11 11:45:15;;;;;;;5.82;2.00;;;25.80;63.30;;;;;;7379952;19;19911;-73
2023/03/11 11:47:47;;;;;;;7.57;2.22;;;26.10;63.40;;;;;;7404771;19;19914;-73
2023/03/11 11:50:35;;;;;;;6.15;2.15;;;26.00;62.80;;;;;;7402983;19;19918;-72
2023/03/11 11:53:15;;;;;;;5.20;2.05;;;26.30;62.00;;;;;;7404583;19;19922;-74
2023/03/11 11:55:47;;;;;;;6.55;2.10;;;25.80;63.10;;;;;;7382780;19;19918;-72
2023/03/11 11:58:13;;;;;;;4.70;1.90;;;24.80;63.80;;;;;;7404944;19;19917;-72
2023/03/11 12:00:57;;;;;;;8.27;1.77;;;25.00;64.40;;;;;;7404862;19;19918;-73
2023/03/11 12:03:44;;;;;;;9.45;2.78;;;25.30;64.30;;;;;;7401700;19;20280;-72
2023/03/11 12:06:33;;;;;;;6.00;1.63;;;25.90;63.10;;;;;;7402173;19;19939;-72
2023/03/11 12:09:13;;;;;;;6.10;1.98;;;26.30;62.20;;;;;;7404304;19;20464;-73
2023/03/11 12:12:04;;;;;;;6.50;1.85;;;26.00;61.50;;;;;;7401509;19;19909;-73
2023/03/11 12:14:44;;;;;;;8.23;2.17;;;26.70;61.40;;;;;;7404586;19;19929;-75
2023/03/11 12:17:13;;;;;;;8.27;2.05;;;27.30;61.20;;;;;;7403100;19;19986;-73
2023/03/11 12:19:46;;;;;;;7.18;1.85;;;27.20;60.80;;;;;;7401392;19;20247;-72
2023/03/11 12:22:21;;;;;;;4.85;2.05;;;26.90;61.40;;;;;;7391357;19;19911;-73
2023/03/11 12:25:04;;;;;;;5.10;1.60;;;27.30;61.30;;;;;;7393150;19;19982;-75
2023/03/11 12:27:41;;;;;;;8.35;2.13;;;26.60;61.20;;;;;;7398103;19;19931;-73
2023/03/11 12:30:18;;;;;;;6.97;1.90;;;26.90;61.30;;;;;;7394532;19;20632;-74
2023/03/11 12:33:31;;;;;;;7.57;2.28;;;27.70;59.90;;;;;;7396842;19;19914;-73
2023/03/11 12:35:58;;;;;;;4.53;1.88;;;27.50;60.10;;;;;;7396354;19;19911;-73
2023/03/11 12:38:32;;;;;;;5.82;1.80;;;28.10;60.20;;;;;;7367557;19;19912;-74
2023/03/11 12:41:37;;;;;;;7.93;2.30;;;26.90;60.00;;;;;;7399302;19;19933;-74
2023/03/11 12:44:25;;;;;;;4.72;1.70;;;26.00;61.40;;;;;;7394786;19;19915;-73
2023/03/11 12:46:56;;;;;;;8.75;1.92;;;26.50;61.50;;;;;;7385628;19;19924;-73
2023/03/11 12:49:31;;;;;;;8.38;2.38;;;27.30;60.80;;;;;;7391970;19;19919;-73
2023/03/11 12:52:16;;;;;;;6.88;1.70;;;27.10;60.90;;;;;;7389409;19;19918;-74
2023/03/11 12:54:44;;;;;;;9.52;2.13;;;26.50;61.60;;;;;;7395929;19;19918;-72
2023/03/11 12:57:19;;;;;;;6.50;2.13;;;25.90;62.20;;;;;;7390224;19;19929;-73
2023/03/11 13:00:24;;;;;;;6.18;1.90;;;25.70;62.90;;;;;;7397453;19;19929;-73